METAR Data
IDs: Format: Raw Decoded Include TAF

Data at: 1949 UTC 17 Nov 2019

PGUA 171856Z 07011KT 10SM SCT010 BKN043 27/24 A2986 RMK SLP102 T02650243 RWY24L $